Time;durP1;ratioP1;P1;durP2;ratioP2;P2;SDS_P1;SDS_P2;PMS_P1;PMS_P2;Temp;Humidity;BMP_temperature;BMP_pressure;BME280_temperature;BME280_humidity;BME280_pressure;Samples;Min_cycle;Max_cycle;Signal;HPM_P1;HPM_P2
2023/05/15 00:01:52;;;;;;;10.82;5.30;;;12.90;99.90;;;;;;4952402;28;20047;-71
2023/05/15 00:04:21;;;;;;;13.38;5.82;;;12.90;99.90;;;;;;4954012;28;20412;-72
2023/05/15 00:06:48;;;;;;;13.10;5.82;;;12.90;99.90;;;;;;4954383;28;20051;-72
2023/05/15 00:09:15;;;;;;;14.65;6.18;;;12.80;99.90;;;;;;4952442;28;20059;-72
2023/05/15 00:11:43;;;;;;;11.90;5.75;;;12.80;99.90;;;;;;4968372;28;20085;-72
2023/05/15 00:14:10;;;;;;;21.92;6.30;;;12.80;99.90;;;;;;4948639;28;20099;-72
2023/05/15 00:16:37;;;;;;;13.77;4.65;;;12.80;99.90;;;;;;4934690;29;20080;-71
2023/05/15 00:19:04;;;;;;;8.65;5.13;;;12.70;99.90;;;;;;4942822;28;20051;-72
2023/05/15 00:21:33;;;;;;;13.73;5.28;;;12.70;99.90;;;;;;4967417;28;20051;-72
2023/05/15 00:24:00;;;;;;;17.83;4.95;;;12.70;99.90;;;;;;4952475;28;20047;-71
2023/05/15 00:26:27;;;;;;;9.30;4.25;;;12.80;99.90;;;;;;4953804;28;20051;-72
2023/05/15 00:28:54;;;;;;;9.40;4.30;;;12.80;99.90;;;;;;4934735;29;20416;-72
2023/05/15 00:31:21;;;;;;;14.80;4.18;;;12.70;99.90;;;;;;4952590;29;20047;-72
2023/05/15 00:33:49;;;;;;;10.70;4.80;;;12.70;99.90;;;;;;4952145;28;20055;-72
2023/05/15 00:36:16;;;;;;;10.45;3.85;;;12.70;99.90;;;;;;4952939;28;20102;-72
2023/05/15 00:38:45;;;;;;;11.80;5.03;;;12.70;99.90;;;;;;4935902;28;20599;-72
2023/05/15 00:41:13;;;;;;;14.32;5.72;;;12.70;99.90;;;;;;4951104;29;20043;-71
2023/05/15 00:43:41;;;;;;;13.93;4.90;;;12.70;99.90;;;;;;4952046;28;20165;-72
2023/05/15 00:46:09;;;;;;;7.85;4.30;;;12.60;99.90;;;;;;4953002;29;20150;-72
2023/05/15 00:48:37;;;;;;;10.68;4.43;;;12.60;99.90;;;;;;4952254;28;20098;-71
2023/05/15 00:51:04;;;;;;;9.38;4.07;;;12.60;99.90;;;;;;4953536;28;20047;-70
2023/05/15 00:53:31;;;;;;;12.48;4.20;;;12.60;99.90;;;;;;4952126;29;20062;-73
2023/05/15 00:56:02;;;;;;;10.80;3.95;;;12.60;99.90;;;;;;4951596;29;20051;-70
2023/05/15 00:58:30;;;;;;;7.10;4.38;;;12.50;99.90;;;;;;4968044;28;20110;-70
2023/05/15 01:00:58;;;;;;;8.60;3.90;;;12.60;99.90;;;;;;4953170;28;20055;-71
2023/05/15 01:03:25;;;;;;;6.43;3.70;;;12.60;99.90;;;;;;4966782;28;20054;-70
2023/05/15 01:05:53;;;;;;;11.85;3.90;;;12.60;99.90;;;;;;4950247;28;20047;-71
2023/05/15 01:08:26;;;;;;;10.98;3.67;;;12.60;99.90;;;;;;4948347;29;20057;-71
2023/05/15 01:10:55;;;;;;;10.68;4.03;;;12.60;99.90;;;;;;4967094;28;20508;-70
2023/05/15 01:13:24;;;;;;;7.55;3.67;;;12.60;99.90;;;;;;4966578;28;20047;-71
2023/05/15 01:15:51;;;;;;;7.47;3.95;;;12.50;99.90;;;;;;4952889;28;20063;-71
2023/05/15 01:18:18;;;;;;;9.55;4.45;;;12.50;99.90;;;;;;4952930;28;20146;-71
2023/05/15 01:21:06;;;;;;;12.65;4.50;;;12.50;99.90;;;;;;4948597;28;20424;-71
2023/05/15 01:23:58;;;;;;;17.02;4.80;;;12.40;99.90;;;;;;4935993;29;20055;-71
2023/05/15 01:26:47;;;;;;;10.30;3.95;;;12.40;99.90;;;;;;4951727;28;20047;-70
2023/05/15 01:29:23;;;;;;;8.48;3.90;;;12.40;99.90;;;;;;4948292;28;20071;-70
2023/05/15 01:31:54;;;;;;;16.05;4.68;;;12.30;99.90;;;;;;4942655;29;20047;-73
2023/05/15 01:34:29;;;;;;;11.55;4.68;;;12.20;99.90;;;;;;4942115;29;20075;-73
2023/05/15 01:36:58;;;;;;;15.00;4.78;;;12.20;99.90;;;;;;4930107;29;20143;-76
2023/05/15 01:39:28;;;;;;;7.32;4.40;;;12.20;99.90;;;;;;4951864;29;20098;-76
2023/05/15 01:42:02;;;;;;;13.55;4.18;;;12.10;99.90;;;;;;4952268;29;20150;-76
2023/05/15 01:44:33;;;;;;;14.77;4.80;;;12.10;99.90;;;;;;4952807;28;20055;-76
2023/05/15 01:47:08;;;;;;;14.75;5.13;;;12.10;99.90;;;;;;4955750;28;20052;-75
2023/05/15 01:49:36;;;;;;;15.13;5.18;;;12.10;99.90;;;;;;4955703;28;20055;-75
2023/05/15 01:52:10;;;;;;;12.38;4.38;;;12.10;99.90;;;;;;4955435;29;20069;-76
2023/05/15 01:54:38;;;;;;;12.65;4.57;;;12.10;99.90;;;;;;4951912;28;20048;-76
2023/05/15 01:57:09;;;;;;;12.57;4.65;;;12.00;99.90;;;;;;4942400;29;20130;-76
2023/05/15 01:59:38;;;;;;;9.52;4.13;;;12.00;99.90;;;;;;4958451;28;20051;-75
2023/05/15 02:02:07;;;;;;;8.35;3.83;;;12.00;99.90;;;;;;4955288;29;20098;-75
2023/05/15 02:04:34;;;;;;;9.60;4.03;;;12.00;99.90;;;;;;4954852;29;20083;-75
2023/05/15 02:07:04;;;;;;;11.18;4.32;;;12.00;99.90;;;;;;4971143;28;20047;-76
2023/05/15 02:09:31;;;;;;;12.10;4.05;;;12.10;99.90;;;;;;4954822;28;20051;-75
2023/05/15 02:12:00;;;;;;;6.55;4.32;;;12.10;99.90;;;;;;4971014;28;20134;-75
2023/05/15 02:14:29;;;;;;;11.60;4.82;;;12.10;99.90;;;;;;4955105;28;20044;-75
2023/05/15 02:16:58;;;;;;;11.15;4.32;;;12.10;99.90;;;;;;4970790;28;20039;-75
2023/05/15 02:19:28;;;;;;;14.30;5.10;;;12.10;99.90;;;;;;4954702;28;20130;-71
2023/05/15 02:22:07;;;;;;;8.18;4.38;;;12.20;99.90;;;;;;4955163;29;20456;-71
2023/05/15 02:24:34;;;;;;;8.25;3.72;;;12.20;99.90;;;;;;4951109;28;20087;-74
2023/05/15 02:27:12;;;;;;;10.35;4.53;;;12.20;99.90;;;;;;4948446;29;20051;-74
2023/05/15 02:29:54;;;;;;;10.57;4.28;;;12.20;99.90;;;;;;4960270;28;20146;-74
2023/05/15 02:32:30;;;;;;;10.60;4.63;;;12.30;99.90;;;;;;4969625;28;20063;-75
2023/05/15 02:35:09;;;;;;;12.32;4.55;;;12.40;99.90;;;;;;4954406;28;22329;-74
2023/05/15 02:37:39;;;;;;;16.63;4.65;;;12.50;99.90;;;;;;4935270;29;20099;-74
2023/05/15 02:40:10;;;;;;;14.27;4.20;;;12.60;99.90;;;;;;4960768;28;20518;-75
2023/05/15 02:42:41;;;;;;;12.13;4.68;;;12.70;99.90;;;;;;4935743;29;20147;-76
2023/05/15 02:45:10;;;;;;;9.57;4.15;;;12.80;99.90;;;;;;4948807;29;20516;-74
2023/05/15 02:47:39;;;;;;;13.63;4.47;;;12.90;99.90;;;;;;4954824;28;20039;-76
2023/05/15 02:50:07;;;;;;;14.43;4.80;;;13.00;99.90;;;;;;4956362;28;20142;-76
2023/05/15 02:52:35;;;;;;;20.17;6.28;;;13.10;99.90;;;;;;4970466;28;20047;-76
2023/05/15 02:55:02;;;;;;;13.20;5.07;;;13.30;99.90;;;;;;4954348;28;20058;-76
2023/05/15 02:57:31;;;;;;;11.85;4.80;;;13.30;99.90;;;;;;4953823;28;20047;-76
2023/05/15 02:59:58;;;;;;;14.93;4.65;;;13.40;99.90;;;;;;4954387;28;20288;-76
2023/05/15 03:02:26;;;;;;;13.75;4.72;;;13.50;99.90;;;;;;4953732;28;20577;-76
2023/05/15 03:04:54;;;;;;;7.30;3.58;;;13.60;99.90;;;;;;4959158;28;20067;-75
2023/05/15 03:07:21;;;;;;;8.88;4.05;;;13.70;99.90;;;;;;4969346;28;20393;-76
2023/05/15 03:09:49;;;;;;;10.70;4.18;;;13.70;99.90;;;;;;4966723;28;20079;-76
2023/05/15 03:12:16;;;;;;;9.75;3.70;;;13.70;99.90;;;;;;4944745;29;20076;-77
2023/05/15 03:14:43;;;;;;;7.50;3.92;;;13.80;99.90;;;;;;4954221;28;20516;-74
2023/05/15 03:17:10;;;;;;;8.27;4.05;;;13.90;99.90;;;;;;4974972;28;20051;-76
2023/05/15 03:19:37;;;;;;;13.05;4.30;;;13.90;99.90;;;;;;4960266;28;20052;-76
2023/05/15 03:22:06;;;;;;;17.20;5.43;;;14.00;99.90;;;;;;4956784;28;20048;-76
2023/05/15 03:24:33;;;;;;;5.82;3.85;;;14.00;99.90;;;;;;4967335;28;20051;-76
2023/05/15 03:27:01;;;;;;;13.85;3.50;;;14.10;99.90;;;;;;4936405;29;20064;-76
2023/05/15 03:29:29;;;;;;;7.63;3.55;;;14.20;99.90;;;;;;4965125;28;20054;-76
2023/05/15 03:31:56;;;;;;;8.55;4.03;;;14.20;99.90;;;;;;4957695;28;20512;-76
2023/05/15 03:34:23;;;;;;;9.15;3.50;;;14.30;99.90;;;;;;4966850;28;20048;-76
2023/05/15 03:36:51;;;;;;;10.85;4.15;;;14.40;99.90;;;;;;4949363;29;20453;-76
2023/05/15 03:39:20;;;;;;;9.07;4.53;;;14.40;99.90;;;;;;4954527;28;20055;-76
2023/05/15 03:41:47;;;;;;;21.65;7.35;;;14.50;99.90;;;;;;4969932;28;20051;-76
2023/05/15 03:44:14;;;;;;;8.88;4.00;;;14.50;99.90;;;;;;4955023;28;20090;-76
2023/05/15 03:46:41;;;;;;;13.82;4.38;;;14.60;99.90;;;;;;4952903;29;20450;-75
2023/05/15 03:49:11;;;;;;;8.27;3.80;;;14.60;99.90;;;;;;4948528;29;20505;-76
2023/05/15 03:51:39;;;;;;;10.05;3.88;;;14.70;99.90;;;;;;4950638;29;20047;-75
2023/05/15 03:54:06;;;;;;;10.13;4.68;;;14.80;99.90;;;;;;4954301;28;20126;-76
2023/05/15 03:56:35;;;;;;;10.07;3.92;;;14.90;99.90;;;;;;4951691;29;20129;-76
2023/05/15 03:59:03;;;;;;;12.10;4.45;;;14.90;99.90;;;;;;4951397;29;20050;-76
2023/05/15 04:01:30;;;;;;;11.48;4.32;;;14.90;99.90;;;;;;4948342;29;20091;-76
2023/05/15 04:03:58;;;;;;;11.27;3.95;;;15.00;99.90;;;;;;4938089;29;20130;-76
2023/05/15 04:06:25;;;;;;;9.10;3.80;;;15.10;99.90;;;;;;4953200;28;20047;-76
2023/05/15 04:08:52;;;;;;;9.18;4.03;;;15.10;99.90;;;;;;4951686;28;20035;-76
2023/05/15 04:11:20;;;;;;;12.00;4.53;;;15.20;99.90;;;;;;4963825;28;20062;-76
2023/05/15 04:13:49;;;;;;;13.52;4.82;;;15.30;99.90;;;;;;4963123;28;20496;-76
2023/05/15 04:16:16;;;;;;;16.40;5.05;;;15.30;99.90;;;;;;4951988;28;20047;-76
2023/05/15 04:18:43;;;;;;;12.18;4.78;;;15.40;99.90;;;;;;4959381;28;20078;-78
2023/05/15 04:21:11;;;;;;;11.85;4.68;;;15.40;99.90;;;;;;4951191;29;20571;-78
2023/05/15 04:23:40;;;;;;;16.92;4.55;;;15.50;99.90;;;;;;4963831;28;20055;-77
2023/05/15 04:26:08;;;;;;;15.25;5.10;;;15.50;99.90;;;;;;4948635;28;20183;-76
2023/05/15 04:28:35;;;;;;;12.45;5.07;;;15.60;99.90;;;;;;4960151;28;20463;-76
2023/05/15 04:31:04;;;;;;;15.32;5.97;;;15.60;99.90;;;;;;4953841;29;20492;-77
2023/05/15 04:33:32;;;;;;;16.95;4.75;;;15.70;99.90;;;;;;4952967;29;20456;-77
2023/05/15 04:35:59;;;;;;;20.60;5.90;;;15.80;99.90;;;;;;4953314;28;20074;-78
2023/05/15 04:38:27;;;;;;;17.25;5.55;;;15.80;99.90;;;;;;4935345;29;20047;-77
2023/05/15 04:40:54;;;;;;;12.00;5.07;;;15.80;99.90;;;;;;4952771;28;20051;-73
2023/05/15 04:43:21;;;;;;;16.67;5.30;;;15.90;99.90;;;;;;4953613;28;20098;-77
2023/05/15 04:45:49;;;;;;;10.25;4.70;;;15.90;99.90;;;;;;4939179;28;20044;-76
2023/05/15 04:48:18;;;;;;;17.42;4.70;;;16.00;99.90;;;;;;4963012;28;20428;-73
2023/05/15 04:50:45;;;;;;;12.20;4.70;;;16.00;99.90;;;;;;4951858;29;20085;-73
2023/05/15 04:53:14;;;;;;;15.43;4.90;;;16.00;99.90;;;;;;4952059;28;20052;-73
2023/05/15 04:55:45;;;;;;;18.77;5.30;;;16.10;99.90;;;;;;4954622;28;20412;-77
2023/05/15 04:58:13;;;;;;;14.18;5.13;;;16.10;99.90;;;;;;4952616;28;20455;-74
2023/05/15 05:00:40;;;;;;;28.48;6.43;;;16.10;99.90;;;;;;4951698;28;20059;-77
2023/05/15 05:03:07;;;;;;;14.02;5.40;;;16.10;99.90;;;;;;4936679;29;20180;-73
2023/05/15 05:05:36;;;;;;;23.27;6.07;;;16.10;99.90;;;;;;4951799;28;20051;-76
2023/05/15 05:08:03;;;;;;;22.08;5.30;;;16.20;99.90;;;;;;4952942;28;20069;-73
2023/05/15 05:10:30;;;;;;;17.63;5.65;;;16.20;99.90;;;;;;4964566;28;20134;-74
2023/05/15 05:12:58;;;;;;;15.95;5.32;;;16.20;99.90;;;;;;4950848;28;20082;-74
2023/05/15 05:15:25;;;;;;;21.30;5.80;;;16.30;99.90;;;;;;4953240;28;20459;-71
2023/05/15 05:17:53;;;;;;;15.10;6.05;;;16.30;99.90;;;;;;4923742;29;20052;-72
2023/05/15 05:20:21;;;;;;;14.18;5.78;;;16.30;99.90;;;;;;4946300;28;20102;-73
2023/05/15 05:22:50;;;;;;;13.50;5.10;;;16.40;99.90;;;;;;4965941;28;20047;-72
2023/05/15 05:25:17;;;;;;;20.73;5.20;;;16.50;99.90;;;;;;4951612;28;20133;-72
2023/05/15 05:27:44;;;;;;;21.65;6.15;;;16.60;99.90;;;;;;4950465;28;20098;-72
2023/05/15 05:30:12;;;;;;;29.02;5.60;;;16.80;99.90;;;;;;4948512;28;20043;-73
2023/05/15 05:32:40;;;;;;;19.70;5.30;;;17.00;99.90;;;;;;4949750;28;20090;-73
2023/05/15 05:35:07;;;;;;;14.60;5.20;;;17.30;99.90;;;;;;4941675;28;20047;-72
2023/05/15 05:37:35;;;;;;;15.30;5.28;;;17.80;99.90;;;;;;4940249;28;20051;-72
2023/05/15 05:40:05;;;;;;;12.55;5.80;;;18.20;99.90;;;;;;4944562;28;20089;-72
2023/05/15 05:42:33;;;;;;;20.00;5.97;;;18.50;99.90;;;;;;4940577;29;20054;-72
2023/05/15 05:45:00;;;;;;;15.15;5.60;;;18.90;99.90;;;;;;4940137;28;20075;-74
2023/05/15 05:47:27;;;;;;;18.88;5.60;;;19.10;99.90;;;;;;4947135;29;20431;-73
2023/05/15 05:49:57;;;;;;;18.80;6.43;;;19.20;99.90;;;;;;4942479;29;20130;-73
2023/05/15 05:52:24;;;;;;;19.65;5.72;;;19.40;99.30;;;;;;4947514;28;20512;-73
2023/05/15 05:54:52;;;;;;;12.07;5.85;;;19.40;99.10;;;;;;4944180;28;20056;-73
2023/05/15 05:57:20;;;;;;;30.42;7.35;;;19.40;98.60;;;;;;4943709;29;20105;-72
2023/05/15 05:59:48;;;;;;;11.32;6.07;;;19.40;99.90;;;;;;4939799;28;20614;-72
2023/05/15 06:02:16;;;;;;;18.85;5.50;;;19.20;99.90;;;;;;4940414;29;20058;-73
2023/05/15 06:04:44;;;;;;;20.08;5.95;;;19.10;99.90;;;;;;4942529;28;20110;-76
2023/05/15 06:07:12;;;;;;;20.30;6.50;;;19.10;99.90;;;;;;4946720;29;20047;-76
2023/05/15 06:09:39;;;;;;;19.75;6.32;;;18.90;99.90;;;;;;4945558;28;20500;-78
2023/05/15 06:12:08;;;;;;;20.90;6.10;;;18.80;99.90;;;;;;4941189;29;20528;-77
2023/05/15 06:14:36;;;;;;;13.88;6.78;;;18.80;99.90;;;;;;4942753;28;20047;-77
2023/05/15 06:17:03;;;;;;;18.23;6.53;;;18.70;99.90;;;;;;4945045;29;20570;-77
2023/05/15 06:19:31;;;;;;;26.70;5.97;;;18.70;99.90;;;;;;4956822;28;20057;-74
2023/05/15 06:21:58;;;;;;;20.42;6.00;;;18.80;99.90;;;;;;4944023;29;20055;-74
2023/05/15 06:24:25;;;;;;;22.80;6.15;;;18.90;99.90;;;;;;4941306;28;20055;-74
2023/05/15 06:26:53;;;;;;;17.00;6.88;;;19.60;99.90;;;;;;4940687;28;20425;-74
2023/05/15 06:29:20;;;;;;;13.07;6.10;;;20.30;99.90;;;;;;4940795;29;20543;-73
2023/05/15 06:31:49;;;;;;;16.17;6.55;;;21.00;98.30;;;;;;4922536;28;20147;-74
2023/05/15 06:34:16;;;;;;;13.40;5.72;;;21.50;94.80;;;;;;4945778;28;20057;-73
2023/05/15 06:36:44;;;;;;;24.17;6.18;;;21.30;92.70;;;;;;4945394;28;20058;-73
2023/05/15 06:39:11;;;;;;;19.80;5.75;;;21.10;92.60;;;;;;4944695;28;20086;-74
2023/05/15 06:41:38;;;;;;;14.40;6.25;;;20.90;93.70;;;;;;4931518;29;20046;-75
2023/05/15 06:44:08;;;;;;;12.07;5.22;;;20.70;93.70;;;;;;4956500;28;20249;-74
2023/05/15 06:46:35;;;;;;;23.98;5.60;;;20.60;95.00;;;;;;4951352;29;20051;-75
2023/05/15 06:49:04;;;;;;;15.73;5.95;;;20.50;95.80;;;;;;4940128;28;20085;-76
2023/05/15 06:51:31;;;;;;;21.38;5.85;;;20.50;94.50;;;;;;4957129;28;20110;-75
2023/05/15 06:53:59;;;;;;;15.52;5.32;;;21.10;95.30;;;;;;4955417;28;20074;-74
2023/05/15 06:56:26;;;;;;;12.65;5.25;;;21.50;92.00;;;;;;4950538;28;20082;-76
2023/05/15 06:58:53;;;;;;;22.20;6.60;;;21.60;91.50;;;;;;4951280;28;20103;-75
2023/05/15 07:01:20;;;;;;;13.52;5.35;;;21.60;92.10;;;;;;4953230;28;20057;-74
2023/05/15 07:03:47;;;;;;;17.23;5.35;;;21.50;92.80;;;;;;4952189;28;20110;-74
2023/05/15 07:06:16;;;;;;;18.02;6.30;;;21.40;92.40;;;;;;4948749;28;20050;-74
2023/05/15 07:08:43;;;;;;;19.45;6.47;;;21.30;92.20;;;;;;4956767;28;20607;-75
2023/05/15 07:11:11;;;;;;;16.55;5.97;;;21.40;92.90;;;;;;4944005;29;20058;-73
2023/05/15 07:13:38;;;;;;;16.67;5.82;;;21.50;91.90;;;;;;4952346;29;20138;-75
2023/05/15 07:16:06;;;;;;;22.42;7.35;;;21.80;90.30;;;;;;4949161;28;20059;-74
2023/05/15 07:18:33;;;;;;;20.27;5.35;;;22.50;92.20;;;;;;4951459;28;20039;-72
2023/05/15 07:21:01;;;;;;;15.00;5.78;;;23.70;86.30;;;;;;4954502;28;20062;-73
2023/05/15 07:23:29;;;;;;;21.98;5.50;;;25.00;80.60;;;;;;4951985;29;20139;-74
2023/05/15 07:25:57;;;;;;;16.70;5.63;;;26.10;73.90;;;;;;4965808;28;20074;-73
2023/05/15 07:28:24;;;;;;;27.45;6.20;;;26.40;68.00;;;;;;4953602;28;20051;-77
2023/05/15 07:30:51;;;;;;;21.67;5.43;;;26.80;67.40;;;;;;4951010;28;20062;-78
2023/05/15 07:33:19;;;;;;;14.10;4.68;;;27.40;66.50;;;;;;4950096;29;20102;-73
2023/05/15 07:35:47;;;;;;;11.00;5.35;;;27.40;61.50;;;;;;4951715;29;20398;-76
2023/05/15 07:38:15;;;;;;;20.73;5.57;;;26.90;63.00;;;;;;4949647;29;20103;-77
2023/05/15 07:40:43;;;;;;;24.60;6.03;;;26.60;64.20;;;;;;4951298;28;20484;-78
2023/05/15 07:43:10;;;;;;;10.23;4.32;;;26.80;66.00;;;;;;4953508;28;20055;-78
2023/05/15 07:45:38;;;;;;;14.88;4.30;;;27.40;59.80;;;;;;4930748;29;20067;-76
2023/05/15 07:48:15;;;;;;;14.30;3.60;;;28.00;58.40;;;;;;4945734;28;20067;-77
2023/05/15 07:50:44;;;;;;;14.50;3.60;;;28.60;57.40;;;;;;4948405;29;20413;-77
2023/05/15 07:53:12;;;;;;;9.82;4.22;;;29.00;54.90;;;;;;4952509;28;20082;-75
2023/05/15 07:55:40;;;;;;;13.02;3.67;;;29.20;53.00;;;;;;4951852;28;20050;-76
2023/05/15 07:58:09;;;;;;;9.57;4.18;;;29.50;53.60;;;;;;4924655;28;20059;-77
2023/05/15 08:00:36;;;;;;;9.93;3.28;;;29.20;54.30;;;;;;4949092;28;20051;-76
2023/05/15 08:03:04;;;;;;;15.85;3.30;;;28.60;50.40;;;;;;4952619;28;20056;-76
2023/05/15 08:05:31;;;;;;;10.68;3.33;;;27.90;52.00;;;;;;4952478;29;20107;-78
2023/05/15 08:08:00;;;;;;;7.07;2.90;;;27.40;51.10;;;;;;4952042;29;20055;-76
2023/05/15 08:10:27;;;;;;;5.80;2.92;;;26.90;51.80;;;;;;4953684;28;20086;-77
2023/05/15 08:12:55;;;;;;;10.77;3.58;;;26.70;52.40;;;;;;4954621;29;20118;-76
2023/05/15 08:15:26;;;;;;;7.07;2.90;;;26.30;52.80;;;;;;4958677;28;20055;-75
2023/05/15 08:17:54;;;;;;;7.53;2.97;;;25.70;54.00;;;;;;4963726;28;20082;-76
2023/05/15 08:20:21;;;;;;;7.47;2.90;;;25.50;55.00;;;;;;4944886;28;20174;-78
2023/05/15 08:22:48;;;;;;;6.28;2.28;;;25.50;53.10;;;;;;4944522;29;20146;-77
2023/05/15 08:25:15;;;;;;;6.50;2.85;;;25.40;51.00;;;;;;4953031;28;20516;-77
2023/05/15 08:27:42;;;;;;;8.02;2.00;;;25.30;50.80;;;;;;4951372;29;20461;-77
2023/05/15 08:30:13;;;;;;;6.68;1.85;;;25.10;50.60;;;;;;4952862;28;20051;-77
2023/05/15 08:32:42;;;;;;;4.78;2.08;;;25.10;51.20;;;;;;4952429;28;20070;-72
2023/05/15 08:35:10;;;;;;;8.65;2.30;;;25.30;51.00;;;;;;4950628;28;20043;-73
2023/05/15 08:37:37;;;;;;;2.95;2.20;;;25.40;51.00;;;;;;4966556;28;20106;-73
2023/05/15 08:40:06;;;;;;;11.65;2.25;;;26.10;51.10;;;;;;4948329;28;20058;-74
2023/05/15 08:42:38;;;;;;;6.05;2.08;;;27.70;49.70;;;;;;4949280;28;20401;-73
2023/05/15 08:45:07;;;;;;;8.85;2.67;;;29.60;47.20;;;;;;4951734;28;20106;-73
2023/05/15 08:47:39;;;;;;;9.48;5.03;;;31.00;46.60;;;;;;4952056;28;20539;-73
2023/05/15 08:50:11;;;;;;;4.70;2.20;;;31.90;44.80;;;;;;4943394;29;20515;-73
2023/05/15 08:52:40;;;;;;;4.85;2.85;;;32.90;42.80;;;;;;4950777;29;20114;-73
2023/05/15 08:55:08;;;;;;;10.48;2.55;;;33.50;42.00;;;;;;4951620;28;20055;-72
2023/05/15 08:57:37;;;;;;;8.38;2.80;;;33.90;42.80;;;;;;4951130;29;20058;-73
2023/05/15 09:00:08;;;;;;;5.07;2.33;;;34.00;42.90;;;;;;4949931;28;20047;-71
2023/05/15 09:02:38;;;;;;;4.93;2.58;;;34.40;42.80;;;;;;4949772;29;20332;-73
2023/05/15 09:05:09;;;;;;;5.38;3.13;;;34.90;41.50;;;;;;4949858;28;20053;-75
2023/05/15 09:07:43;;;;;;;2.90;2.65;;;35.20;40.90;;;;;;4952276;29;20047;-78
2023/05/15 09:10:13;;;;;;;9.80;2.97;;;35.70;39.40;;;;;;4951149;29;20436;-79
2023/05/15 09:12:43;;;;;;;3.95;2.50;;;36.30;38.20;;;;;;4938588;29;20062;-80
2023/05/15 09:15:12;;;;;;;7.40;3.08;;;36.40;37.90;;;;;;4957525;28;20051;-75
2023/05/15 09:17:41;;;;;;;8.40;3.03;;;36.70;36.80;;;;;;4951939;29;20489;-76
2023/05/15 09:20:25;;;;;;;4.95;2.47;;;36.30;36.50;;;;;;4936015;29;20055;-76
2023/05/15 09:22:53;;;;;;;9.90;2.63;;;35.70;37.00;;;;;;4949791;28;20233;-76
2023/05/15 09:25:33;;;;;;;6.22;2.42;;;35.40;37.80;;;;;;4948163;28;20036;-75
2023/05/15 09:28:01;;;;;;;3.70;2.47;;;35.60;37.20;;;;;;4950721;29;20102;-75
2023/05/15 09:30:29;;;;;;;9.70;4.93;;;36.00;36.20;;;;;;4947494;28;20051;-77
2023/05/15 09:33:05;;;;;;;5.30;2.45;;;36.10;35.60;;;;;;4940190;28;20052;-76
2023/05/15 09:35:35;;;;;;;7.85;3.78;;;36.10;36.10;;;;;;4945014;28;20050;-75
2023/05/15 09:38:04;;;;;;;6.90;2.42;;;36.10;35.90;;;;;;4942952;28;20075;-76
2023/05/15 09:40:32;;;;;;;9.55;2.45;;;36.10;36.50;;;;;;4943962;28;20047;-76
2023/05/15 09:43:00;;;;;;;5.68;2.13;;;36.30;36.30;;;;;;4946050;28;20054;-77
2023/05/15 09:45:28;;;;;;;5.38;2.10;;;36.10;35.50;;;;;;4948808;28;20039;-76
2023/05/15 09:47:57;;;;;;;3.90;2.35;;;35.50;35.90;;;;;;4958502;28;20048;-75
2023/05/15 09:50:32;;;;;;;7.95;2.60;;;35.40;36.00;;;;;;4948036;28;20043;-71
2023/05/15 09:53:01;;;;;;;4.68;2.05;;;34.50;36.10;;;;;;4944055;29;20482;-71
2023/05/15 09:55:31;;;;;;;6.47;2.85;;;34.20;36.70;;;;;;4943954;28;20047;-72
2023/05/15 09:58:06;;;;;;;3.75;2.33;;;34.60;37.40;;;;;;4942794;28;20071;-72
2023/05/15 10:00:34;;;;;;;5.88;2.55;;;35.20;37.00;;;;;;4942626;29;20047;-74
2023/05/15 10:03:03;;;;;;;6.38;2.40;;;35.90;37.30;;;;;;4944768;28;20053;-72
2023/05/15 10:05:31;;;;;;;3.88;1.90;;;36.50;34.80;;;;;;4946641;29;20075;-72
2023/05/15 10:07:58;;;;;;;6.00;1.95;;;36.70;34.20;;;;;;4950016;28;20040;-72
2023/05/15 10:10:28;;;;;;;1.67;1.58;;;37.00;33.70;;;;;;4945337;29;20086;-72
2023/05/15 10:12:58;;;;;;;3.58;1.42;;;35.90;33.70;;;;;;4949320;28;20059;-76
2023/05/15 10:15:26;;;;;;;3.97;1.60;;;33.60;34.90;;;;;;4959069;28;20501;-75
2023/05/15 10:17:54;;;;;;;3.20;1.90;;;31.80;37.20;;;;;;4960533;28;20043;-77
2023/05/15 10:20:26;;;;;;;5.30;2.13;;;32.00;38.50;;;;;;4932336;29;20059;-77
2023/05/15 10:22:55;;;;;;;4.20;1.80;;;32.90;36.80;;;;;;4949837;28;20547;-77
2023/05/15 10:25:33;;;;;;;6.43;2.08;;;33.40;36.40;;;;;;4945728;28;20043;-78
2023/05/15 10:28:01;;;;;;;6.75;1.85;;;34.20;36.50;;;;;;4954413;29;20115;-78
2023/05/15 10:30:29;;;;;;;5.20;2.00;;;34.50;35.80;;;;;;4953285;28;20102;-77
2023/05/15 10:32:57;;;;;;;4.28;1.83;;;34.10;36.20;;;;;;4955206;28;20608;-77
2023/05/15 10:35:26;;;;;;;3.63;2.10;;;33.80;36.20;;;;;;4951934;28;20055;-78
2023/05/15 10:37:54;;;;;;;4.53;1.90;;;34.00;37.40;;;;;;4950515;28;20039;-76
2023/05/15 10:40:21;;;;;;;3.58;1.33;;;34.60;36.50;;;;;;4951119;28;20068;-77
2023/05/15 10:42:50;;;;;;;3.45;2.10;;;35.10;36.30;;;;;;4944072;28;20055;-76
2023/05/15 10:45:18;;;;;;;3.78;1.83;;;34.90;35.30;;;;;;4949383;28;20103;-76
2023/05/15 10:47:46;;;;;;;2.15;1.58;;;34.90;35.50;;;;;;4932323;29;20432;-79
2023/05/15 10:50:13;;;;;;;3.35;1.83;;;34.10;35.40;;;;;;4948925;28;20055;-76
2023/05/15 10:52:42;;;;;;;7.28;2.15;;;32.30;36.70;;;;;;4948180;28;20066;-77
2023/05/15 10:55:14;;;;;;;6.38;1.70;;;30.40;38.30;;;;;;4946608;28;20491;-76
2023/05/15 10:57:41;;;;;;;7.22;1.77;;;29.60;39.60;;;;;;4948199;29;20056;-78
2023/05/15 11:00:30;;;;;;;5.47;1.40;;;29.70;41.00;;;;;;4945562;29;20074;-78
2023/05/15 11:02:58;;;;;;;5.03;2.15;;;30.20;40.70;;;;;;4949710;28;20080;-71
2023/05/15 11:05:26;;;;;;;4.45;1.67;;;30.60;39.60;;;;;;4948969;29;20468;-70
2023/05/15 11:08:26;;;;;;;3.55;1.60;;;31.70;39.00;;;;;;4949574;28;20053;-71
2023/05/15 11:10:53;;;;;;;5.32;1.20;;;33.20;36.80;;;;;;4949071;28;20058;-71
2023/05/15 11:13:21;;;;;;;5.10;2.00;;;32.40;37.50;;;;;;4949706;28;20513;-71
2023/05/15 11:15:50;;;;;;;3.25;1.27;;;31.20;38.80;;;;;;4950763;29;20055;-76
2023/05/15 11:18:17;;;;;;;6.35;1.80;;;30.20;39.70;;;;;;4960393;28;20043;-76
2023/05/15 11:21:09;;;;;;;4.50;1.42;;;29.60;40.40;;;;;;4945648;29;20524;-76
2023/05/15 11:23:41;;;;;;;5.93;2.22;;;29.00;40.10;;;;;;4948352;28;20055;-76
2023/05/15 11:26:08;;;;;;;4.13;1.33;;;28.70;40.40;;;;;;4959566;28;20503;-76
2023/05/15 11:28:43;;;;;;;4.18;1.52;;;28.20;40.90;;;;;;4945152;29;20052;-76
2023/05/15 11:31:13;;;;;;;2.28;1.13;;;27.60;42.00;;;;;;4929159;29;20055;-78
2023/05/15 11:33:41;;;;;;;4.43;1.50;;;27.10;42.10;;;;;;4961775;28;20051;-77
2023/05/15 11:36:09;;;;;;;4.20;1.60;;;26.60;42.70;;;;;;4964431;28;20043;-76
2023/05/15 11:38:40;;;;;;;2.95;1.40;;;26.20;43.80;;;;;;4952944;28;20050;-75
2023/05/15 11:41:20;;;;;;;5.38;1.50;;;26.00;43.90;;;;;;4951742;29;20063;-77
2023/05/15 11:43:48;;;;;;;2.58;1.33;;;26.00;44.90;;;;;;4953764;28;20616;-76
2023/05/15 11:46:17;;;;;;;4.18;1.25;;;26.10;43.90;;;;;;4953554;29;20055;-81
2023/05/15 11:48:46;;;;;;;6.07;1.60;;;26.10;44.70;;;;;;4944092;28;20048;-82
2023/05/15 11:51:18;;;;;;;3.35;1.58;;;26.20;44.40;;;;;;4952641;29;20050;-80
2023/05/15 11:53:46;;;;;;;;;;;26.10;44.40;;;;;;4936983;29;20106;-78
2023/05/15 11:56:18;;;;;;;1.73;1.63;;;26.30;44.90;;;;;;4950508;29;19962;-78
2023/05/15 11:58:47;;;;;;;3.58;1.42;;;26.40;44.00;;;;;;4949113;28;20106;-78
2023/05/15 12:01:16;;;;;;;3.00;1.58;;;26.40;44.80;;;;;;4954428;28;20596;-78
2023/05/15 12:03:43;;;;;;;3.70;1.55;;;27.30;43.90;;;;;;4954303;28;20146;-78
2023/05/15 12:06:11;;;;;;;1.23;1.20;;;28.70;42.20;;;;;;4958367;28;20058;-79
2023/05/15 12:08:38;;;;;;;4.63;1.95;;;29.00;41.80;;;;;;4952721;28;20047;-78
2023/05/15 12:11:06;;;;;;;8.70;1.00;;;28.90;41.90;;;;;;4950674;29;20504;-73
2023/05/15 12:13:33;;;;;;;4.07;1.50;;;29.00;42.40;;;;;;4951143;28;20142;-73
2023/05/15 12:16:02;;;;;;;3.63;1.48;;;28.90;42.30;;;;;;4968160;28;20524;-73
2023/05/15 12:18:32;;;;;;;2.55;1.50;;;30.80;41.40;;;;;;4965489;28;20054;-73
2023/05/15 12:21:00;;;;;;;2.88;1.52;;;32.80;39.20;;;;;;4953448;28;20435;-74
2023/05/15 12:23:28;;;;;;;2.08;1.45;;;34.10;37.00;;;;;;4951562;28;20102;-74
2023/05/15 12:25:59;;;;;;;4.10;1.40;;;35.00;35.90;;;;;;4950668;28;20062;-75
2023/05/15 12:28:27;;;;;;;1.35;1.17;;;35.50;35.70;;;;;;4950011;29;20062;-74
2023/05/15 12:30:54;;;;;;;5.18;1.02;;;36.20;34.50;;;;;;4948477;28;20059;-74
2023/05/15 12:33:22;;;;;;;5.07;1.35;;;35.40;34.70;;;;;;4953157;28;20055;-74
2023/05/15 12:35:56;;;;;;;3.47;1.17;;;33.40;35.90;;;;;;4952127;28;20051;-74
2023/05/15 12:38:24;;;;;;;5.75;1.00;;;31.40;37.10;;;;;;4950976;28;20051;-74
2023/05/15 12:40:53;;;;;;;10.18;1.38;;;30.00;39.50;;;;;;4948242;28;20051;-75
2023/05/15 12:43:24;;;;;;;5.65;1.00;;;29.00;40.30;;;;;;4962742;28;20050;-73
2023/05/15 12:45:52;;;;;;;6.22;1.52;;;28.00;41.50;;;;;;4949383;29;20051;-74
2023/05/15 12:48:20;;;;;;;4.13;1.13;;;27.30;42.30;;;;;;4952298;28;20051;-73
2023/05/15 12:50:48;;;;;;;5.13;1.40;;;26.70;43.10;;;;;;4952870;28;20058;-73